Nearby METAR Reports

 

KMGE - Dobbins Afb/Marietta, Ga, USA
Distance from station: ENE 10mi, 17km
Updated: Tue, 23-Jan-2018 5:56pm EST
Partly cloudy
Partly cloudy
 Wind from WNW
Wind: WNW 12 mph , 19 km/h
Temperature: 50°F , 10°C
Wind Chill: 45°F , 7°C
Dew Point: 30°F , -1°C
Humidity: 47%
Barometer: 30.04 inHg , 1017.3 hPa
Clouds: Partly cloudy
Visibility: 10 miles , 16 km
Cloud details: Partly cloudy 25000 ft
2018/01/23 22:56 KMGE 232256Z 29010KT 10SM SCT250 10/M01 A3004 RMK AO2A SLP175 T00981013 $
KFTY - Fulton, Ga, USA
Distance from station: ESE 11mi, 18km
Updated: Tue, 23-Jan-2018 5:53pm EST
Clear
Clear
 Wind from W
Wind: W 10 mph , 17 km/h
Temperature: 52°F , 11°C
Dew Point: 30°F , -1°C
Humidity: 44%
Barometer: 30.05 inHg , 1017.6 hPa
Clouds: Clear
Visibility: 10 miles , 16 km
2018/01/23 22:53 KFTY 232253Z 27009KT 10SM CLR 11/M01 A3005 RMK AO2 SLP174 T01111006
 
KRYY - Marietta Mccolum, Ga, USA
Distance from station: NNE 12mi, 19km
Updated: Tue, 23-Jan-2018 6:48pm EST
Clear
Clear
 Wind from WNW
Wind: WNW 9 mph , 15 km/h
Temperature: 48°F , 9°C
Wind Chill: 44°F , 7°C
Dew Point: 30°F , -1°C
Humidity: 50%
Barometer: 30.08 inHg , 1018.6 hPa
Clouds: Clear
Visibility: 10 miles , 16 km
2018/01/23 23:48 KRYY 232348Z 29008KT 10SM CLR 09/M01 A3008 RMK AO2 SLP908 T00941011 10122 20094 51029
KPUJ - Paulding, Ga, USA
Distance from station: WNW 15mi, 24km
Updated: Tue, 23-Jan-2018 6:35pm EST
Clear
Clear
 Wind from WNW
Wind: WNW 5 mph , 7 km/h
Temperature: 52°F , 11°C
Dew Point: 36°F , 2°C
Humidity: 54%
Barometer: 30.07 inHg , 1018.3 hPa
Clouds: Clear
Visibility: 10 miles , 16 km
2018/01/23 23:35 KPUJ 232335Z AUTO 30004KT 10SM CLR 11/02 A3007 RMK AO2
 
KATL - Atlanta, Ga, USA
Distance from station: SE 21mi, 33km
Updated: Tue, 23-Jan-2018 5:52pm EST
Partly cloudy
Partly cloudy
 Wind from W
Wind: W 13 mph , 20 km/h
Temperature: 52°F , 11°C
Dew Point: 32°F , 0°C
Humidity: 47%
Barometer: 30.04 inHg , 1017.3 hPa
Clouds: Partly cloudy
Visibility: 10 miles , 16 km
Cloud details: Partly cloudy 25000 ft
2018/01/23 22:52 KATL 232252Z 27011KT 10SM SCT250 11/00 A3004 RMK AO2 SLP173 T01110000
KVPC - Cartersville, Ga, USA
Distance from station: NNW 21mi, 34km
Updated: Tue, 23-Jan-2018 5:53pm EST
Clear
Clear
 Wind from calm
Wind: Calm
Temperature: 48°F , 9°C
Dew Point: 32°F , 0°C
Humidity: 54%
Barometer: 30.07 inHg , 1018.3 hPa
Clouds: Clear
Visibility: 10 miles , 16 km
2018/01/23 22:53 KVPC 232253Z AUTO 00000KT 10SM CLR 09/00 A3007 RMK AO2 SLP177 T00940000
 
KPDK - Peachtree/Dekalb, Ga, USA
Distance from station: E 22mi, 36km
Updated: Tue, 23-Jan-2018 5:53pm EST
Clear
Clear
 Wind from WNW
Wind: WNW 14 mph , 22 km/h
Temperature: 50°F , 10°C
Wind Chill: 45°F , 7°C
Dew Point: 28°F , -2°C
Humidity: 43%
Barometer: 30.04 inHg , 1017.3 hPa
Clouds: Clear
Visibility: 10 miles , 16 km
2018/01/23 22:53 KPDK 232253Z 30012KT 10SM CLR 10/M02 A3004 RMK AO2 SLP174 T01001017
KCTJ - Carrollton/Gray, Ga, USA
Distance from station: WSW 31mi, 50km
Updated: Tue, 23-Jan-2018 6:35pm EST
Clear
Clear
 Wind from calm
Wind: Calm
Temperature: 46°F , 8°C
Dew Point: 32°F , 0°C
Humidity: 57%
Barometer: 30.12 inHg , 1020 hPa
Clouds: Clear
Visibility: 10 miles , 16 km
2018/01/23 23:35 KCTJ 232335Z AUTO 00000KT 10SM CLR 08/00 A3012 RMK AO2 T00761001
 
KCNI - Canton/Cherokee, Ga, USA
Distance from station: NNE 35mi, 56km
Updated: Tue, 23-Jan-2018 6:35pm EST
Clear
Clear
 Wind from WNW
Wind: WNW 7 mph , 11 km/h, Gust: 17 mph , 28 km/h
Temperature: 50°F , 10°C
Wind Chill: 47°F , 8°C
Dew Point: 32°F , 0°C
Humidity: 50%
Barometer: 30.06 inHg , 1017.9 hPa
Clouds: Clear
Visibility: 10 miles , 16 km
2018/01/23 23:35 KCNI 232335Z AUTO 30006G15KT 10SM CLR 10/00 A3006 RMK AO2
KFFC - Peachtree City, Ga, USA
Distance from station: S 36mi, 58km
Updated: Tue, 23-Jan-2018 5:53pm EST
Clear
Clear
 Wind from W
Wind: W 6 mph , 9 km/h
Temperature: 54°F , 12°C
Dew Point: 30°F , -1°C
Humidity: 41%
Barometer: 30.05 inHg , 1017.6 hPa
Clouds: Clear
Visibility: 10 miles , 16 km
2018/01/23 22:53 KFFC 232253Z AUTO 27005KT 10SM CLR 12/M01 A3005 RMK AO2 SLP178 T01221011
 
KCCO - Newnan, Ga, USA
Distance from station: S 38mi, 61km
Updated: Tue, 23-Jan-2018 6:35pm EST
Clear
Clear
 Wind from WNW
Wind: WNW 5 mph , 7 km/h
Temperature: 52°F , 11°C
Dew Point: 30°F , -1°C
Humidity: 44%
Barometer: 30.08 inHg , 1018.6 hPa
Clouds: Clear
Visibility: 10 miles , 16 km
2018/01/23 23:35 KCCO 232335Z AUTO 29004KT 10SM CLR 11/M01 A3008 RMK AO2 T01071013
KLZU - Lawrenceville, Ga, USA
Distance from station: ENE 42mi, 68km
Updated: Tue, 23-Jan-2018 5:56pm EST
Clear
Clear
 Wind from W
Wind: W 7 mph , 11 km/h
Temperature: 52°F , 11°C
Dew Point: 30°F , -1°C
Humidity: 44%
Barometer: 30.03 inHg , 1016.9 hPa
Clouds: Clear
Visibility: 10 miles , 16 km
2018/01/23 22:56 KLZU 232256Z 27006KT 10SM CLR 11/M01 A3003 RMK AO2 SLP168 T01061011 $
 
KRMG - Rome, Ga, USA
Distance from station: NW 44mi, 70km
Updated: Tue, 23-Jan-2018 5:53pm EST
Clear
Clear
 Wind from WNW
Wind: WNW 9 mph , 15 km/h
Temperature: 52°F , 11°C
Dew Point: 32°F , 0°C
Humidity: 47%
Barometer: 30.06 inHg , 1017.9 hPa
Clouds: Clear
Visibility: 10 miles , 16 km
2018/01/23 22:53 KRMG 232253Z AUTO 30008KT 10SM CLR 11/00 A3006 RMK AO2 SLP177 T01060000
K6A2 - Griffin-Spalding, Ga, USA
Distance from station: SSE 49mi, 80km
Updated: Tue, 23-Jan-2018 6:35pm EST
Clear
Clear
 Wind from WNW
Wind: WNW 3 mph , 6 km/h
Temperature: 52°F , 11°C
Dew Point: 32°F , 0°C
Humidity: 47%
Barometer: 30.06 inHg , 1017.9 hPa
Clouds: Clear
Visibility: 10 miles , 16 km
2018/01/23 23:35 K6A2 232335Z AUTO 29003KT 10SM CLR 11/00 A3006 RMK AO2